Seattle, Washington
Traffic Map
Current Weather Conditions
Seattle, Washington
Overcast
Overcast
19°
Feels Like: 19°
Wind Chill: 19° Ceiling: 1800
Heat Index: 19° Visibility: 10mi
Dew Point: 15° Wind: 3mph
Humidity: 76% Direction: ° ()
Pressure: 30.04in Gusts: 0mph
Raw Report DataKBFI 231753Z VRB03KT 10SM OVC018 19/15 A3004 RMK AO2 SLP172 T01940150 10194 20156 56005
Traffic Incident Summary
Active as of:
Severity:
Category:
InformationThere was an issue retrieving the traffic information for this location. Please try a different location or try again shortly.
Advertisements